»·PEaware :: SWA1364 KLAS-KSNA

SWA1364 :: KLAS-KSNA

FLIGHT INFORMATION

Flight Status: Arrived
Operator:
Southwest Airlines
More flights by this operator :: More flights under this callsign
Pilot: Cody B. (17747)
Aircraft: BOEING 737-800
(B738)
More flights by this aircraft type
Origin: KLAS McCarran Intl
United States
Destination: KSNA John Wayne-Orange Co
United States
More flights between these airports :: More routes between these airports
Route: +BOACH8 WHIGG FEYLA DSNEE2
File this flight plan on PilotEdge
Remarks: Good Evening
Altitude:
(Current/Filed)
24,000ft
Speed:
(Current/Filed)
450kts
Departed: 03-Jan-18 05:12 PM
Arrived: 03-Jan-18 05:57 PM
Distance/Time
Traveled:
197nm/0:45
Distance/Time
To Go:
Arrived

Flight Plot

Page will automatically refresh every two minutes.

Flight plan parsing failed; only flown route is shown


Map Options




Map Legend


Flown Route
Filed Route
Departure Airport
Arrival Airport
Navaid (VOR, NDB)
Fix

Horizontal Profiles

Position Reports

Time Latitude Longitude Heading Altitude Ground
Speed
03-Jan-18 16:53 36.079928 -115.147115 57 2096ft 0kts
03-Jan-18 16:54 36.079928 -115.147115 57 2096ft 0kts
03-Jan-18 16:55 36.079928 -115.147115 57 2096ft 0kts
03-Jan-18 16:56 36.079928 -115.147115 57 2096ft 0kts
03-Jan-18 16:57 36.079928 -115.147115 57 2096ft 0kts
03-Jan-18 16:58 36.079928 -115.147115 57 2096ft 0kts
03-Jan-18 16:59 36.079928 -115.147115 57 2096ft 0kts
03-Jan-18 17:00 36.079928 -115.147115 57 2096ft 0kts
03-Jan-18 17:01 36.079928 -115.147115 57 2096ft 0kts
03-Jan-18 17:02 36.079928 -115.147115 57 2096ft 0kts
03-Jan-18 17:03 36.079892 -115.147598 105 2098ft 2kts
03-Jan-18 17:04 36.080197 -115.148016 155 2099ft 0kts
03-Jan-18 17:05 36.080196 -115.148015 155 2099ft 0kts
03-Jan-18 17:06 36.080196 -115.148015 155 2099ft 0kts
03-Jan-18 17:07 36.080196 -115.148015 155 2099ft 0kts
03-Jan-18 17:08 36.080161 -115.147996 156 2099ft 1kts
03-Jan-18 17:09 36.079413 -115.147594 153 2100ft 0kts
03-Jan-18 17:10 36.079029 -115.147317 136 2101ft 5kts
03-Jan-18 17:11 36.078243 -115.142309 90 2086ft 21kts
03-Jan-18 17:12 36.078242 -115.134158 90 2061ft 25kts
03-Jan-18 17:13 36.078251 -115.125759 89 2040ft 21kts
03-Jan-18 17:14 36.077410 -115.121497 139 2037ft 0kts
03-Jan-18 17:15 36.077410 -115.121497 139 2037ft 0kts
03-Jan-18 17:16 36.076765 -115.121329 189 2038ft 8kts
03-Jan-18 17:17 36.076396 -115.125643 269 2043ft 21kts
03-Jan-18 17:18 36.076550 -115.175658 270 3454ft 208kts
03-Jan-18 17:19 36.059569 -115.255914 222 5480ft 267kts
03-Jan-18 17:20 35.991261 -115.292525 201 5499ft 269kts
03-Jan-18 17:21 35.917959 -115.308388 186 5527ft 272kts
03-Jan-18 17:22 35.842948 -115.314222 174 6911ft 280kts
03-Jan-18 17:23 35.764954 -115.304536 176 10040ft 288kts
03-Jan-18 17:24 35.680179 -115.305981 204 12140ft 322kts
03-Jan-18 17:25 35.613946 -115.380629 228 14224ft 332kts
03-Jan-18 17:26 35.551379 -115.465190 228 16752ft 341kts
03-Jan-18 17:27 35.486858 -115.552056 228 19051ft 350kts
03-Jan-18 17:28 35.420665 -115.641003 228 21222ft 356kts
03-Jan-18 17:29 35.365263 -115.715344 228 22845ft 361kts
03-Jan-18 17:30 35.301740 -115.800636 227 23183ft 361kts
03-Jan-18 17:31 35.233871 -115.891866 227 24159ft 365kts
03-Jan-18 17:32 35.163184 -115.981576 225 24185ft 372kts
03-Jan-18 17:33 35.090509 -116.072689 226 24180ft 378kts
03-Jan-18 17:34 35.017772 -116.163969 226 24182ft 375kts
03-Jan-18 17:35 34.946096 -116.254022 226 24179ft 367kts
03-Jan-18 17:36 34.886542 -116.328931 226 24175ft 360kts
03-Jan-18 17:37 34.817905 -116.416280 226 24170ft 355kts
03-Jan-18 17:38 34.749831 -116.502864 226 24173ft 353kts
03-Jan-18 17:39 34.681032 -116.587667 220 24172ft 354kts
03-Jan-18 17:40 34.608227 -116.658088 219 22915ft 344kts
03-Jan-18 17:41 34.534651 -116.729851 219 20227ft 341kts
03-Jan-18 17:42 34.462632 -116.807444 224 19789ft 350kts
03-Jan-18 17:43 34.394154 -116.887199 224 17640ft 339kts
03-Jan-18 17:44 34.326972 -116.965129 224 15712ft 332kts
03-Jan-18 17:45 34.260297 -117.039122 213 14051ft 325kts
03-Jan-18 17:46 34.184990 -117.092953 211 13330ft 327kts
03-Jan-18 17:47 34.106996 -117.137386 204 12916ft 328kts
03-Jan-18 17:48 34.028269 -117.179218 204 12197ft 322kts
03-Jan-18 17:49 33.961901 -117.243925 230 11224ft 316kts
03-Jan-18 17:50 33.906459 -117.322414 230 10046ft 299kts
03-Jan-18 17:51 33.860647 -117.387244 230 8912ft 248kts
03-Jan-18 17:52 33.817691 -117.449191 241 8015ft 241kts
03-Jan-18 17:53 33.796034 -117.524528 271 7988ft 241kts
03-Jan-18 17:54 33.802907 -117.602646 275 6302ft 211kts
03-Jan-18 17:55 33.824886 -117.660712 301 4621ft 197kts
03-Jan-18 17:56 33.853700 -117.715191 301 3923ft 189kts
03-Jan-18 17:57 33.859660 -117.770955 224 2983ft 195kts
03-Jan-18 17:58 33.811178 -117.788377 193 2988ft 194kts
03-Jan-18 17:59 33.768837 -117.809741 208 1981ft 140kts
03-Jan-18 18:00 33.736786 -117.830107 208 1280ft 132kts
03-Jan-18 18:01 33.704650 -117.850466 208 584ft 131kts
03-Jan-18 18:02 33.674462 -117.869600 206 54ft 66kts
03-Jan-18 18:03 33.670160 -117.872194 183 57ft 8kts
03-Jan-18 18:04 33.669620 -117.872067 152 57ft 0kts
03-Jan-18 18:05 33.669114 -117.871060 70 57ft 7kts
03-Jan-18 18:06 33.670999 -117.869016 38 54ft 9kts
03-Jan-18 18:07 33.672872 -117.867553 45 53ft 8kts
03-Jan-18 18:08 33.675053 -117.865875 26 49ft 13kts
03-Jan-18 18:09 33.675409 -117.864974 114 47ft 0kts
03-Jan-18 18:10 33.675383 -117.864909 116 47ft 0kts
03-Jan-18 18:11 33.675383 -117.864909 116 47ft 0kts
03-Jan-18 18:12 33.675383 -117.864909 116 47ft 0kts

Navigation Log

Ident Type
Flight plan parsing failed, navigation log unavailable